weather.gov     
National Weather Service

Terminal Aerodrome Forecast
NWS Homepage
This page is being discontinued on March 12, 2014.
The same data is available at this site. Please update your bookmarks.
Thank you, and we apologize for the inconvenience.
Please send an email to SR-SRH.Webmaster@noaa.gov with any concerns.


Current Version
Previous Version:    01  02  03  04  05  06  07  08  09  10  11  12  13  14  15  16  17  18  19  20  21  22  23  24  25  26  27  28  29  30  
   31  32  33  34  35  36  37  
[Printable]
297
FTUS42 KFFC 010100 AAA
TAFRYY
TAF AMD
KRYY 010105Z 0101/0124 07007KT 6SM -RA BR BKN045
     FM010500 06005KT P6SM BKN018
     FM010800 06003KT 6SM BR BKN007 PROB30 0110/0115 4SM -RA BR
     FM011500 07005KT 5SM -SHRA BKN015 BKN025
     FM011800 05004KT 6SM -SHRA BKN035
      AMD NOT SKED 0104/0112=


U.S. Dept. of Commerce
NOAA National Weather Service
1325 East West Highway
Silver Spring, MD 20910
E-mail: w-nws.webmaster@noaa.gov
Page last modified: May 16, 2007
NATIONAL WEATHER SERVICE: for Safety, for Work, for Fun - FOR LIFE